La Madera, New Mexico
Current Conditions -  °F | °C
As of 3:35 AM on Sunday 28 Dec 2014 (Local Time) from KSKX Reporting Station
Clear Clear  
Wind Chill: -27°   Ceiling: Unl
Heat Index: -20°   Visibility: 10mi
Dew Point: -21°   Wind: 6mph
Humidity: 92%   Direction: 20°NNE
Pressure: 30.15"   Gusts: NA
Location:  36.39°N, 106.04°W
Report Text: KSKX 281035Z AUTO 02005KT 10SM CLR M20/M21 A3015 RMK AO1
Loading
Personal Weather Stations






























Interactive Weather Map New forecast layout! Learn more

10-Day Weather Forecast

Advertisements
Track Severe Weather on mobile